sensor_id;sensor_type;location;lat;lon;timestamp;pressure;altitude;pressure_sealevel;temperature;humidity
25610;BME280;13479;49.044;8.716;2023-08-24T00:00:16;99179.09;;;21.00;68.13
25610;BME280;13479;49.044;8.716;2023-08-24T00:02:41;99173.25;;;20.96;68.38
25610;BME280;13479;49.044;8.716;2023-08-24T00:05:07;99175.13;;;20.95;68.34
25610;BME280;13479;49.044;8.716;2023-08-24T00:07:32;99171.41;;;20.96;68.12
25610;BME280;13479;49.044;8.716;2023-08-24T00:09:58;99174.69;;;20.92;68.36
25610;BME280;13479;49.044;8.716;2023-08-24T00:12:23;99171.72;;;20.87;68.39
25610;BME280;13479;49.044;8.716;2023-08-24T00:14:48;99176.53;;;20.91;67.97
25610;BME280;13479;49.044;8.716;2023-08-24T00:17:13;99198.00;;;21.00;67.04
25610;BME280;13479;49.044;8.716;2023-08-24T00:19:40;99194.56;;;21.12;66.40
25610;BME280;13479;49.044;8.716;2023-08-24T00:22:05;99179.72;;;21.02;66.81
25610;BME280;13479;49.044;8.716;2023-08-24T00:24:30;99165.78;;;20.98;67.20
25610;BME280;13479;49.044;8.716;2023-08-24T00:26:55;99144.75;;;20.87;67.49
25610;BME280;13479;49.044;8.716;2023-08-24T00:29:21;99132.31;;;20.92;67.64
25610;BME280;13479;49.044;8.716;2023-08-24T00:31:47;99123.38;;;20.85;67.96
25610;BME280;13479;49.044;8.716;2023-08-24T00:34:12;99119.00;;;20.84;68.27
25610;BME280;13479;49.044;8.716;2023-08-24T00:36:37;99123.09;;;20.80;68.59
25610;BME280;13479;49.044;8.716;2023-08-24T00:39:03;99120.19;;;20.75;68.70
25610;BME280;13479;49.044;8.716;2023-08-24T00:41:28;99120.28;;;20.88;68.16
25610;BME280;13479;49.044;8.716;2023-08-24T00:43:53;99126.53;;;20.95;67.62
25610;BME280;13479;49.044;8.716;2023-08-24T00:46:19;99164.91;;;21.19;66.22
25610;BME280;13479;49.044;8.716;2023-08-24T00:48:44;99154.03;;;21.41;64.96
25610;BME280;13479;49.044;8.716;2023-08-24T00:51:10;99141.75;;;21.45;64.97
25610;BME280;13479;49.044;8.716;2023-08-24T00:53:36;99134.72;;;21.51;64.76
25610;BME280;13479;49.044;8.716;2023-08-24T00:56:03;99135.56;;;21.51;64.46
25610;BME280;13479;49.044;8.716;2023-08-24T00:58:28;99134.31;;;21.54;64.21
25610;BME280;13479;49.044;8.716;2023-08-24T01:00:56;99126.44;;;21.52;64.08
25610;BME280;13479;49.044;8.716;2023-08-24T01:03:22;99123.13;;;21.57;63.42
25610;BME280;13479;49.044;8.716;2023-08-24T01:05:48;99115.84;;;21.57;63.55
25610;BME280;13479;49.044;8.716;2023-08-24T01:08:13;99119.03;;;21.61;63.67
25610;BME280;13479;49.044;8.716;2023-08-24T01:10:55;99123.59;;;21.60;63.56
25610;BME280;13479;49.044;8.716;2023-08-24T01:13:42;99135.25;;;21.61;63.18
25610;BME280;13479;49.044;8.716;2023-08-24T01:16:16;99146.88;;;21.62;63.13
25610;BME280;13479;49.044;8.716;2023-08-24T01:18:43;99139.56;;;21.55;63.29
25610;BME280;13479;49.044;8.716;2023-08-24T01:21:09;99120.16;;;21.45;64.05
25610;BME280;13479;49.044;8.716;2023-08-24T01:26:22;99099.94;;;21.27;65.00
25610;BME280;13479;49.044;8.716;2023-08-24T01:28:47;99104.06;;;21.23;65.22
25610;BME280;13479;49.044;8.716;2023-08-24T01:31:16;99097.00;;;21.16;65.63
25610;BME280;13479;49.044;8.716;2023-08-24T01:33:42;99108.78;;;21.08;65.89
25610;BME280;13479;49.044;8.716;2023-08-24T01:36:08;99119.31;;;21.03;65.85
25610;BME280;13479;49.044;8.716;2023-08-24T01:38:35;99122.56;;;20.91;66.10
25610;BME280;13479;49.044;8.716;2023-08-24T01:41:17;99126.53;;;20.95;65.84
25610;BME280;13479;49.044;8.716;2023-08-24T01:43:46;99119.63;;;20.86;66.35
25610;BME280;13479;49.044;8.716;2023-08-24T01:46:15;99122.09;;;20.81;66.79
25610;BME280;13479;49.044;8.716;2023-08-24T01:48:42;99127.59;;;20.73;67.26
25610;BME280;13479;49.044;8.716;2023-08-24T01:51:09;99125.88;;;20.65;67.85
25610;BME280;13479;49.044;8.716;2023-08-24T01:53:35;99144.75;;;20.65;68.10
25610;BME280;13479;49.044;8.716;2023-08-24T01:56:08;99143.50;;;20.89;67.90
25610;BME280;13479;49.044;8.716;2023-08-24T01:58:33;99146.84;;;20.91;67.64
25610;BME280;13479;49.044;8.716;2023-08-24T02:00:58;99153.38;;;21.04;67.09
25610;BME280;13479;49.044;8.716;2023-08-24T02:03:24;99147.22;;;20.81;67.85
25610;BME280;13479;49.044;8.716;2023-08-24T02:05:49;99131.19;;;20.80;68.22
25610;BME280;13479;49.044;8.716;2023-08-24T02:08:14;99130.81;;;20.83;67.93
25610;BME280;13479;49.044;8.716;2023-08-24T02:10:39;99131.84;;;20.82;68.00
25610;BME280;13479;49.044;8.716;2023-08-24T02:13:04;99126.22;;;20.77;68.10
25610;BME280;13479;49.044;8.716;2023-08-24T02:15:30;99133.38;;;20.70;68.33
25610;BME280;13479;49.044;8.716;2023-08-24T02:17:55;99120.53;;;20.72;68.28
25610;BME280;13479;49.044;8.716;2023-08-24T02:20:20;99125.38;;;20.76;68.05
25610;BME280;13479;49.044;8.716;2023-08-24T02:22:45;99139.78;;;20.90;67.49
25610;BME280;13479;49.044;8.716;2023-08-24T02:25:11;99148.28;;;20.87;67.45
25610;BME280;13479;49.044;8.716;2023-08-24T02:27:36;99135.94;;;20.78;67.94
25610;BME280;13479;49.044;8.716;2023-08-24T02:30:01;99118.34;;;20.82;68.24
25610;BME280;13479;49.044;8.716;2023-08-24T02:32:27;99145.91;;;21.06;67.36
25610;BME280;13479;49.044;8.716;2023-08-24T02:34:52;99158.78;;;21.04;67.22
25610;BME280;13479;49.044;8.716;2023-08-24T02:37:17;99159.81;;;21.03;67.32
25610;BME280;13479;49.044;8.716;2023-08-24T02:39:42;99166.09;;;21.10;67.09
25610;BME280;13479;49.044;8.716;2023-08-24T02:42:08;99147.09;;;20.96;67.61
25610;BME280;13479;49.044;8.716;2023-08-24T02:44:33;99143.38;;;20.97;67.64
25610;BME280;13479;49.044;8.716;2023-08-24T02:46:58;99131.56;;;20.98;67.79
25610;BME280;13479;49.044;8.716;2023-08-24T02:49:24;99139.88;;;21.04;67.10
25610;BME280;13479;49.044;8.716;2023-08-24T02:51:49;99152.72;;;21.02;67.37
25610;BME280;13479;49.044;8.716;2023-08-24T02:54:14;99126.53;;;20.95;67.91
25610;BME280;13479;49.044;8.716;2023-08-24T02:56:39;99100.59;;;20.94;68.09
25610;BME280;13479;49.044;8.716;2023-08-24T02:59:05;99095.34;;;20.86;68.53
25610;BME280;13479;49.044;8.716;2023-08-24T03:01:30;99097.03;;;20.87;68.38
25610;BME280;13479;49.044;8.716;2023-08-24T03:03:56;99093.31;;;20.88;68.58
25610;BME280;13479;49.044;8.716;2023-08-24T03:06:21;99094.94;;;20.89;68.28
25610;BME280;13479;49.044;8.716;2023-08-24T03:08:48;99090.78;;;20.87;68.32
25610;BME280;13479;49.044;8.716;2023-08-24T03:11:14;99082.84;;;20.78;68.70
25610;BME280;13479;49.044;8.716;2023-08-24T03:13:39;99075.47;;;20.65;69.11
25610;BME280;13479;49.044;8.716;2023-08-24T03:16:05;99074.03;;;20.70;69.19
25610;BME280;13479;49.044;8.716;2023-08-24T03:18:31;99054.50;;;20.67;69.30
25610;BME280;13479;49.044;8.716;2023-08-24T03:20:57;99059.03;;;20.60;69.66
25610;BME280;13479;49.044;8.716;2023-08-24T03:23:23;99056.63;;;20.72;69.29
25610;BME280;13479;49.044;8.716;2023-08-24T03:25:48;99058.78;;;20.77;69.40
25610;BME280;13479;49.044;8.716;2023-08-24T03:28:13;99069.81;;;20.60;69.79
25610;BME280;13479;49.044;8.716;2023-08-24T03:30:45;99073.72;;;20.51;70.30
25610;BME280;13479;49.044;8.716;2023-08-24T03:33:11;99078.06;;;20.52;70.46
25610;BME280;13479;49.044;8.716;2023-08-24T03:35:36;99081.44;;;20.61;70.16
25610;BME280;13479;49.044;8.716;2023-08-24T03:38:01;99083.78;;;20.71;69.69
25610;BME280;13479;49.044;8.716;2023-08-24T03:40:28;99089.97;;;20.86;69.02
25610;BME280;13479;49.044;8.716;2023-08-24T03:42:53;99081.50;;;20.96;68.48
25610;BME280;13479;49.044;8.716;2023-08-24T03:45:19;99076.78;;;21.05;68.19
25610;BME280;13479;49.044;8.716;2023-08-24T03:47:44;99079.91;;;21.08;68.00
25610;BME280;13479;49.044;8.716;2023-08-24T03:50:09;99067.19;;;20.95;68.45
25610;BME280;13479;49.044;8.716;2023-08-24T03:52:35;99051.78;;;20.89;69.00
25610;BME280;13479;49.044;8.716;2023-08-24T03:55:00;99046.66;;;21.01;68.58
25610;BME280;13479;49.044;8.716;2023-08-24T03:57:27;99038.91;;;20.91;68.94
25610;BME280;13479;49.044;8.716;2023-08-24T03:59:52;99031.94;;;21.04;68.34
25610;BME280;13479;49.044;8.716;2023-08-24T04:02:18;99045.88;;;21.14;67.84
25610;BME280;13479;49.044;8.716;2023-08-24T04:04:43;99044.47;;;21.18;67.38
25610;BME280;13479;49.044;8.716;2023-08-24T04:07:09;99044.28;;;21.26;66.80
25610;BME280;13479;49.044;8.716;2023-08-24T04:09:34;99037.84;;;21.27;66.38
25610;BME280;13479;49.044;8.716;2023-08-24T04:11:59;99031.16;;;21.23;66.15
25610;BME280;13479;49.044;8.716;2023-08-24T04:14:24;99037.84;;;21.27;65.84
25610;BME280;13479;49.044;8.716;2023-08-24T04:16:49;99034.53;;;21.32;65.49
25610;BME280;13479;49.044;8.716;2023-08-24T04:19:15;99032.69;;;21.33;65.27
25610;BME280;13479;49.044;8.716;2023-08-24T04:21:40;99027.44;;;21.24;65.62
25610;BME280;13479;49.044;8.716;2023-08-24T04:24:05;99028.72;;;21.28;65.49
25610;BME280;13479;49.044;8.716;2023-08-24T04:26:31;99037.00;;;21.20;65.32
25610;BME280;13479;49.044;8.716;2023-08-24T04:28:56;99014.91;;;21.03;66.22
25610;BME280;13479;49.044;8.716;2023-08-24T04:31:22;98983.25;;;20.83;67.42
25610;BME280;13479;49.044;8.716;2023-08-24T04:33:47;98999.44;;;20.77;68.13
25610;BME280;13479;49.044;8.716;2023-08-24T04:36:12;99005.91;;;20.89;68.17
25610;BME280;13479;49.044;8.716;2023-08-24T04:38:37;99003.03;;;20.91;68.35
25610;BME280;13479;49.044;8.716;2023-08-24T04:41:03;99008.09;;;21.14;67.69
25610;BME280;13479;49.044;8.716;2023-08-24T04:43:32;99036.81;;;21.28;66.76
25610;BME280;13479;49.044;8.716;2023-08-24T04:45:58;99036.00;;;21.35;66.17
25610;BME280;13479;49.044;8.716;2023-08-24T04:48:24;99025.38;;;21.26;66.54
25610;BME280;13479;49.044;8.716;2023-08-24T04:50:50;99031.22;;;21.37;65.14
25610;BME280;13479;49.044;8.716;2023-08-24T04:53:17;99015.47;;;21.47;64.33
25610;BME280;13479;49.044;8.716;2023-08-24T04:55:43;99009.66;;;21.50;63.60
25610;BME280;13479;49.044;8.716;2023-08-24T04:58:09;99004.25;;;21.50;63.57
25610;BME280;13479;49.044;8.716;2023-08-24T05:00:35;98998.66;;;21.52;63.40
25610;BME280;13479;49.044;8.716;2023-08-24T05:03:05;98994.91;;;21.53;63.40
25610;BME280;13479;49.044;8.716;2023-08-24T05:05:31;98993.47;;;21.57;63.34
25610;BME280;13479;49.044;8.716;2023-08-24T05:07:58;98989.31;;;21.54;63.51
25610;BME280;13479;49.044;8.716;2023-08-24T05:10:24;98985.16;;;21.52;63.61
25610;BME280;13479;49.044;8.716;2023-08-24T05:12:49;98961.47;;;21.47;64.23
25610;BME280;13479;49.044;8.716;2023-08-24T05:15:15;98979.16;;;21.63;63.73
25610;BME280;13479;49.044;8.716;2023-08-24T05:17:40;98999.75;;;21.71;63.04
25610;BME280;13479;49.044;8.716;2023-08-24T05:20:06;98987.72;;;21.67;63.28
25610;BME280;13479;49.044;8.716;2023-08-24T05:22:33;98999.38;;;21.87;62.11
25610;BME280;13479;49.044;8.716;2023-08-24T05:24:58;98995.44;;;21.97;61.14
25610;BME280;13479;49.044;8.716;2023-08-24T05:27:23;99000.00;;;22.16;60.73
25610;BME280;13479;49.044;8.716;2023-08-24T05:29:48;99004.56;;;22.49;59.18
25610;BME280;13479;49.044;8.716;2023-08-24T05:32:14;99000.97;;;22.69;58.77
25610;BME280;13479;49.044;8.716;2023-08-24T05:34:39;98999.66;;;22.98;58.21
25610;BME280;13479;49.044;8.716;2023-08-24T05:37:04;98998.78;;;23.57;56.67
25610;BME280;13479;49.044;8.716;2023-08-24T05:39:29;99000.78;;;24.26;54.58
25610;BME280;13479;49.044;8.716;2023-08-24T05:41:55;99005.78;;;24.91;52.63
25610;BME280;13479;49.044;8.716;2023-08-24T05:44:20;99011.91;;;25.54;50.94
25610;BME280;13479;49.044;8.716;2023-08-24T05:46:46;99019.19;;;25.84;49.89
25610;BME280;13479;49.044;8.716;2023-08-24T05:49:12;99011.44;;;25.88;49.95
25610;BME280;13479;49.044;8.716;2023-08-24T05:51:37;99018.03;;;26.34;49.19
25610;BME280;13479;49.044;8.716;2023-08-24T05:54:03;99029.00;;;26.75;47.96
25610;BME280;13479;49.044;8.716;2023-08-24T05:56:28;99026.19;;;27.23;47.25
25610;BME280;13479;49.044;8.716;2023-08-24T05:58:57;99043.34;;;27.47;46.19
25610;BME280;13479;49.044;8.716;2023-08-24T06:01:23;99052.84;;;27.21;46.28
25610;BME280;13479;49.044;8.716;2023-08-24T06:03:49;99041.53;;;26.76;47.48
25610;BME280;13479;49.044;8.716;2023-08-24T06:06:14;99030.91;;;26.39;48.30
25610;BME280;13479;49.044;8.716;2023-08-24T06:08:40;99019.25;;;25.96;49.51
25610;BME280;13479;49.044;8.716;2023-08-24T06:11:05;99025.31;;;25.68;50.73
25610;BME280;13479;49.044;8.716;2023-08-24T06:13:30;99032.13;;;25.58;51.24
25610;BME280;13479;49.044;8.716;2023-08-24T06:15:55;99047.78;;;25.44;52.54
25610;BME280;13479;49.044;8.716;2023-08-24T06:18:21;99042.91;;;25.16;53.09
25610;BME280;13479;49.044;8.716;2023-08-24T06:20:47;99048.53;;;24.77;53.97
25610;BME280;13479;49.044;8.716;2023-08-24T06:23:16;99054.69;;;24.41;55.11
25610;BME280;13479;49.044;8.716;2023-08-24T06:25:41;99049.47;;;24.20;55.67
25610;BME280;13479;49.044;8.716;2023-08-24T06:28:06;99057.13;;;23.91;56.32
25610;BME280;13479;49.044;8.716;2023-08-24T06:30:37;99055.59;;;23.70;56.64
25610;BME280;13479;49.044;8.716;2023-08-24T06:33:04;99053.13;;;23.62;57.20
25610;BME280;13479;49.044;8.716;2023-08-24T06:35:29;99048.59;;;23.56;57.06
25610;BME280;13479;49.044;8.716;2023-08-24T06:37:54;99042.94;;;23.57;57.44
25610;BME280;13479;49.044;8.716;2023-08-24T06:40:19;99033.88;;;23.77;56.94
25610;BME280;13479;49.044;8.716;2023-08-24T06:42:45;99032.16;;;23.83;56.80
25610;BME280;13479;49.044;8.716;2023-08-24T06:45:10;99060.84;;;24.04;56.09
25610;BME280;13479;49.044;8.716;2023-08-24T06:47:36;99094.91;;;24.25;55.72
25610;BME280;13479;49.044;8.716;2023-08-24T06:50:01;99094.28;;;24.48;54.52
25610;BME280;13479;49.044;8.716;2023-08-24T06:52:26;99092.06;;;24.71;53.91
25610;BME280;13479;49.044;8.716;2023-08-24T06:54:51;99083.38;;;24.80;53.32
25610;BME280;13479;49.044;8.716;2023-08-24T06:57:20;99071.56;;;24.93;52.35
25610;BME280;13479;49.044;8.716;2023-08-24T06:59:45;99065.28;;;25.11;52.37
25610;BME280;13479;49.044;8.716;2023-08-24T07:02:10;99067.31;;;25.35;50.79
25610;BME280;13479;49.044;8.716;2023-08-24T07:04:36;99060.84;;;25.36;50.71
25610;BME280;13479;49.044;8.716;2023-08-24T07:07:03;99067.69;;;25.57;50.41
25610;BME280;13479;49.044;8.716;2023-08-24T07:09:29;99078.81;;;25.98;49.23
25610;BME280;13479;49.044;8.716;2023-08-24T07:11:54;99099.28;;;26.31;48.58
25610;BME280;13479;49.044;8.716;2023-08-24T07:14:19;99109.13;;;26.44;48.01
25610;BME280;13479;49.044;8.716;2023-08-24T07:16:44;99101.56;;;26.58;47.61
25610;BME280;13479;49.044;8.716;2023-08-24T07:19:10;99089.16;;;26.62;46.90
25610;BME280;13479;49.044;8.716;2023-08-24T07:21:35;99080.63;;;26.82;45.93
25610;BME280;13479;49.044;8.716;2023-08-24T07:24:00;99090.88;;;28.26;43.16
25610;BME280;13479;49.044;8.716;2023-08-24T07:26:26;99102.75;;;29.94;39.69
25610;BME280;13479;49.044;8.716;2023-08-24T07:28:52;99102.72;;;31.45;37.51
25610;BME280;13479;49.044;8.716;2023-08-24T07:31:17;99121.06;;;32.75;35.31
25610;BME280;13479;49.044;8.716;2023-08-24T07:33:42;99142.31;;;33.56;33.31
25610;BME280;13479;49.044;8.716;2023-08-24T07:36:10;99161.78;;;33.75;32.31
25610;BME280;13479;49.044;8.716;2023-08-24T07:38:35;99171.88;;;34.45;30.77
25610;BME280;13479;49.044;8.716;2023-08-24T07:41:01;99163.03;;;35.61;29.31
25610;BME280;13479;49.044;8.716;2023-08-24T07:43:26;99176.50;;;36.97;27.41
25610;BME280;13479;49.044;8.716;2023-08-24T07:45:51;99184.41;;;38.24;26.19
25610;BME280;13479;49.044;8.716;2023-08-24T07:48:17;99174.72;;;39.44;24.84
25610;BME280;13479;49.044;8.716;2023-08-24T07:50:42;99196.63;;;40.29;23.36
25610;BME280;13479;49.044;8.716;2023-08-24T07:53:08;99193.28;;;40.89;22.85
25610;BME280;13479;49.044;8.716;2023-08-24T07:55:34;99190.63;;;41.19;22.78
25610;BME280;13479;49.044;8.716;2023-08-24T07:57:59;99198.44;;;42.16;21.95
25610;BME280;13479;49.044;8.716;2023-08-24T08:00:24;99200.34;;;42.79;21.27
25610;BME280;13479;49.044;8.716;2023-08-24T08:02:50;99191.63;;;42.47;21.14
25610;BME280;13479;49.044;8.716;2023-08-24T08:05:17;99191.94;;;42.45;21.35
25610;BME280;13479;49.044;8.716;2023-08-24T08:07:42;99187.72;;;42.60;20.55
25610;BME280;13479;49.044;8.716;2023-08-24T08:10:07;99189.84;;;42.75;20.51
25610;BME280;13479;49.044;8.716;2023-08-24T08:12:33;99188.16;;;42.62;20.94
25610;BME280;13479;49.044;8.716;2023-08-24T08:14:59;99194.09;;;42.60;20.68
25610;BME280;13479;49.044;8.716;2023-08-24T08:17:24;99182.81;;;42.02;21.41
25610;BME280;13479;49.044;8.716;2023-08-24T08:19:54;99181.03;;;41.67;21.59
25610;BME280;13479;49.044;8.716;2023-08-24T08:22:20;99172.31;;;41.99;21.83
25610;BME280;13479;49.044;8.716;2023-08-24T08:24:45;99178.38;;;42.77;20.68
25610;BME280;13479;49.044;8.716;2023-08-24T08:27:10;99176.91;;;43.04;20.80
25610;BME280;13479;49.044;8.716;2023-08-24T08:29:36;99161.06;;;43.09;20.47
25610;BME280;13479;49.044;8.716;2023-08-24T08:32:01;99163.38;;;42.82;21.09
25610;BME280;13479;49.044;8.716;2023-08-24T08:34:26;99151.50;;;42.85;20.88
25610;BME280;13479;49.044;8.716;2023-08-24T08:36:51;99149.00;;;43.42;20.33
25610;BME280;13479;49.044;8.716;2023-08-24T08:39:17;99159.00;;;43.43;19.67
25610;BME280;13479;49.044;8.716;2023-08-24T08:41:43;99154.47;;;43.50;20.23
25610;BME280;13479;49.044;8.716;2023-08-24T08:44:12;99162.41;;;44.14;19.36
25610;BME280;13479;49.044;8.716;2023-08-24T08:46:39;99159.50;;;44.39;18.98
25610;BME280;13479;49.044;8.716;2023-08-24T08:49:06;99142.41;;;44.56;19.23
25610;BME280;13479;49.044;8.716;2023-08-24T08:51:31;99149.94;;;45.00;18.82
25610;BME280;13479;49.044;8.716;2023-08-24T08:53:57;99150.94;;;45.40;18.47
25610;BME280;13479;49.044;8.716;2023-08-24T08:56:23;99145.78;;;45.78;18.27
25610;BME280;13479;49.044;8.716;2023-08-24T08:58:49;99129.03;;;45.62;18.04
25610;BME280;13479;49.044;8.716;2023-08-24T09:01:15;99130.38;;;45.88;17.88
25610;BME280;13479;49.044;8.716;2023-08-24T09:03:42;99121.97;;;46.07;17.63
25610;BME280;13479;49.044;8.716;2023-08-24T09:06:09;99113.84;;;45.47;18.19
25610;BME280;13479;49.044;8.716;2023-08-24T09:08:34;99096.94;;;44.92;18.87
25610;BME280;13479;49.044;8.716;2023-08-24T09:10:59;99083.38;;;44.94;19.15
25610;BME280;13479;49.044;8.716;2023-08-24T09:13:26;99073.00;;;44.18;19.48
25610;BME280;13479;49.044;8.716;2023-08-24T09:15:52;99063.59;;;43.03;19.97
25610;BME280;13479;49.044;8.716;2023-08-24T09:18:18;99049.38;;;42.59;20.95
25610;BME280;13479;49.044;8.716;2023-08-24T09:20:43;99038.88;;;41.97;21.81
25610;BME280;13479;49.044;8.716;2023-08-24T09:23:17;99025.88;;;42.14;21.66
25610;BME280;13479;49.044;8.716;2023-08-24T09:25:47;99020.44;;;42.18;22.04
25610;BME280;13479;49.044;8.716;2023-08-24T09:28:13;99022.75;;;42.03;21.81
25610;BME280;13479;49.044;8.716;2023-08-24T09:30:38;99019.03;;;41.90;21.53
25610;BME280;13479;49.044;8.716;2023-08-24T09:33:05;99002.09;;;41.19;22.64
25610;BME280;13479;49.044;8.716;2023-08-24T09:35:35;98996.41;;;40.38;24.39
25610;BME280;13479;49.044;8.716;2023-08-24T09:38:19;98978.25;;;40.41;24.17
25610;BME280;13479;49.044;8.716;2023-08-24T09:40:46;98972.97;;;39.92;24.56
25610;BME280;13479;49.044;8.716;2023-08-24T09:43:15;98964.34;;;39.41;25.02
25610;BME280;13479;49.044;8.716;2023-08-24T09:45:54;98949.59;;;39.14;25.72
25610;BME280;13479;49.044;8.716;2023-08-24T09:48:20;98934.44;;;39.55;25.67
25610;BME280;13479;49.044;8.716;2023-08-24T09:50:47;98937.28;;;40.11;25.20
25610;BME280;13479;49.044;8.716;2023-08-24T09:53:20;98943.03;;;39.97;25.08
25610;BME280;13479;49.044;8.716;2023-08-24T09:55:53;98931.78;;;39.94;24.76
25610;BME280;13479;49.044;8.716;2023-08-24T09:58:21;98920.41;;;40.25;25.10
25610;BME280;13479;49.044;8.716;2023-08-24T10:00:47;98916.09;;;40.37;24.82
25610;BME280;13479;49.044;8.716;2023-08-24T10:03:16;98914.28;;;39.93;25.25
25610;BME280;13479;49.044;8.716;2023-08-24T10:05:45;98907.34;;;40.17;25.46
25610;BME280;13479;49.044;8.716;2023-08-24T10:08:12;98904.06;;;40.15;25.56
25610;BME280;13479;49.044;8.716;2023-08-24T10:10:39;98914.63;;;40.69;24.44
25610;BME280;13479;49.044;8.716;2023-08-24T10:13:14;98914.06;;;41.06;24.53
25610;BME280;13479;49.044;8.716;2023-08-24T10:15:42;98921.25;;;40.86;23.88
25610;BME280;13479;49.044;8.716;2023-08-24T10:18:12;98915.94;;;40.33;24.73
25610;BME280;13479;49.044;8.716;2023-08-24T10:20:38;98922.16;;;39.82;24.73
25610;BME280;13479;49.044;8.716;2023-08-24T10:23:03;98900.63;;;39.53;25.03
25610;BME280;13479;49.044;8.716;2023-08-24T10:25:29;98896.97;;;38.73;26.40
25610;BME280;13479;49.044;8.716;2023-08-24T10:27:55;98873.94;;;38.55;26.55
25610;BME280;13479;49.044;8.716;2023-08-24T10:30:23;98872.50;;;38.75;26.08
25610;BME280;13479;49.044;8.716;2023-08-24T10:32:48;98876.41;;;38.74;26.55
25610;BME280;13479;49.044;8.716;2023-08-24T10:35:16;98873.31;;;38.67;26.43
25610;BME280;13479;49.044;8.716;2023-08-24T10:37:44;98860.34;;;38.36;25.94
25610;BME280;13479;49.044;8.716;2023-08-24T10:40:10;98862.56;;;37.53;27.55
25610;BME280;13479;49.044;8.716;2023-08-24T10:42:46;98851.94;;;36.73;28.59
25610;BME280;13479;49.044;8.716;2023-08-24T10:45:13;98834.16;;;36.52;28.90
25610;BME280;13479;49.044;8.716;2023-08-24T10:47:45;98826.00;;;36.83;29.00
25610;BME280;13479;49.044;8.716;2023-08-24T10:50:11;98815.97;;;37.10;28.74
25610;BME280;13479;49.044;8.716;2023-08-24T10:52:37;98816.13;;;37.28;28.89
25610;BME280;13479;49.044;8.716;2023-08-24T10:55:05;98813.19;;;37.47;27.97
25610;BME280;13479;49.044;8.716;2023-08-24T10:57:58;98814.47;;;37.81;27.24
25610;BME280;13479;49.044;8.716;2023-08-24T11:00:26;98830.41;;;38.07;27.40
25610;BME280;13479;49.044;8.716;2023-08-24T11:02:52;98813.25;;;38.45;27.53
25610;BME280;13479;49.044;8.716;2023-08-24T11:05:19;98826.84;;;38.82;26.73
25610;BME280;13479;49.044;8.716;2023-08-24T11:08:08;98835.97;;;38.91;26.58
25610;BME280;13479;49.044;8.716;2023-08-24T11:13:14;98819.50;;;38.10;27.60
25610;BME280;13479;49.044;8.716;2023-08-24T11:18:14;98799.34;;;36.65;29.65
25610;BME280;13479;49.044;8.716;2023-08-24T11:20:43;98790.09;;;36.05;30.47
25610;BME280;13479;49.044;8.716;2023-08-24T11:23:09;98795.69;;;35.71;31.42
25610;BME280;13479;49.044;8.716;2023-08-24T11:25:37;98775.84;;;35.55;31.75
25610;BME280;13479;49.044;8.716;2023-08-24T11:28:03;98780.34;;;35.32;32.16
25610;BME280;13479;49.044;8.716;2023-08-24T11:30:32;98764.84;;;35.03;32.57
25610;BME280;13479;49.044;8.716;2023-08-24T11:32:58;98765.75;;;34.79;32.96
25610;BME280;13479;49.044;8.716;2023-08-24T11:35:24;98762.94;;;34.66;33.39
25610;BME280;13479;49.044;8.716;2023-08-24T11:37:53;98774.00;;;34.60;34.20
25610;BME280;13479;49.044;8.716;2023-08-24T11:40:19;98758.47;;;34.51;34.08
25610;BME280;13479;49.044;8.716;2023-08-24T11:42:45;98752.81;;;34.37;33.51
25610;BME280;13479;49.044;8.716;2023-08-24T11:45:11;98743.81;;;34.31;34.39
25610;BME280;13479;49.044;8.716;2023-08-24T11:47:38;98747.81;;;34.19;34.97
25610;BME280;13479;49.044;8.716;2023-08-24T11:50:03;98732.44;;;34.38;34.26
25610;BME280;13479;49.044;8.716;2023-08-24T11:52:29;98736.44;;;34.51;33.85
25610;BME280;13479;49.044;8.716;2023-08-24T11:54:54;98734.47;;;34.51;34.65
25610;BME280;13479;49.044;8.716;2023-08-24T11:57:20;98738.66;;;34.48;34.08
25610;BME280;13479;49.044;8.716;2023-08-24T11:59:45;98746.97;;;34.43;34.11
25610;BME280;13479;49.044;8.716;2023-08-24T12:02:11;98742.63;;;34.37;34.20
25610;BME280;13479;49.044;8.716;2023-08-24T12:04:40;98728.53;;;34.19;34.71
25610;BME280;13479;49.044;8.716;2023-08-24T12:07:13;98716.88;;;34.28;34.41
25610;BME280;13479;49.044;8.716;2023-08-24T12:09:39;98723.88;;;34.39;34.22
25610;BME280;13479;49.044;8.716;2023-08-24T12:12:04;98721.50;;;34.32;34.92
25610;BME280;13479;49.044;8.716;2023-08-24T12:14:43;98707.22;;;34.49;34.35
25610;BME280;13479;49.044;8.716;2023-08-24T12:17:12;98712.31;;;34.75;34.32
25610;BME280;13479;49.044;8.716;2023-08-24T12:19:44;98707.69;;;34.71;34.54
25610;BME280;13479;49.044;8.716;2023-08-24T12:22:16;98686.19;;;34.54;34.84
25610;BME280;13479;49.044;8.716;2023-08-24T12:24:47;98682.38;;;34.69;34.88
25610;BME280;13479;49.044;8.716;2023-08-24T12:27:22;98674.22;;;34.63;34.89
25610;BME280;13479;49.044;8.716;2023-08-24T12:29:48;98676.47;;;34.75;35.23
25610;BME280;13479;49.044;8.716;2023-08-24T12:32:16;98665.06;;;34.82;34.64
25610;BME280;13479;49.044;8.716;2023-08-24T12:34:44;98666.69;;;34.83;35.45
25610;BME280;13479;49.044;8.716;2023-08-24T12:37:10;98657.19;;;34.75;35.91
25610;BME280;13479;49.044;8.716;2023-08-24T12:39:35;98667.09;;;34.76;35.27
25610;BME280;13479;49.044;8.716;2023-08-24T12:42:02;98653.41;;;34.71;35.72
25610;BME280;13479;49.044;8.716;2023-08-24T12:44:27;98643.72;;;34.74;35.39
25610;BME280;13479;49.044;8.716;2023-08-24T12:46:53;98647.97;;;34.99;34.92
25610;BME280;13479;49.044;8.716;2023-08-24T12:49:18;98646.38;;;35.12;35.33
25610;BME280;13479;49.044;8.716;2023-08-24T12:51:43;98647.97;;;35.13;34.94
25610;BME280;13479;49.044;8.716;2023-08-24T12:54:08;98643.50;;;35.03;35.21
25610;BME280;13479;49.044;8.716;2023-08-24T12:56:34;98632.03;;;34.96;34.79
25610;BME280;13479;49.044;8.716;2023-08-24T12:59:00;98629.34;;;34.91;35.52
25610;BME280;13479;49.044;8.716;2023-08-24T13:01:25;98621.63;;;34.93;35.34
25610;BME280;13479;49.044;8.716;2023-08-24T13:03:50;98625.91;;;34.99;35.21